createdAt,value
2024-02-10T00:00:21.074Z,78.71
2024-02-10T00:03:11.363Z,79.34
2024-02-10T00:05:40.676Z,78.80
2024-02-10T00:08:08.634Z,78.93
2024-02-10T00:10:36.467Z,79.44
2024-02-10T00:13:04.735Z,79.26
2024-02-10T00:15:32.464Z,79.54
2024-02-10T00:18:00.349Z,79.38
2024-02-10T00:20:29.765Z,79.25
2024-02-10T00:22:57.990Z,79.58
2024-02-10T00:25:26.150Z,79.32
2024-02-10T00:27:55.407Z,79.27
2024-02-10T00:30:24.732Z,79.03
2024-02-10T00:32:53.558Z,79.40
2024-02-10T00:35:23.399Z,79.24
2024-02-10T00:37:51.848Z,79.17
2024-02-10T00:40:19.804Z,79.36
2024-02-10T00:42:47.704Z,79.09
2024-02-10T00:45:15.825Z,79.45
2024-02-10T00:47:46.220Z,79.11
2024-02-10T00:50:17.013Z,79.50
2024-02-10T00:52:49.639Z,79.77
2024-02-10T00:55:18.552Z,79.58
2024-02-10T00:57:48.044Z,79.60
2024-02-10T01:00:19.603Z,79.39
2024-02-10T01:02:47.620Z,79.73
2024-02-10T01:05:16.018Z,79.71
2024-02-10T01:07:47.396Z,79.61
2024-02-10T01:10:15.794Z,79.63
2024-02-10T01:12:43.712Z,79.69
2024-02-10T01:15:11.482Z,79.24
2024-02-10T01:17:39.268Z,79.81
2024-02-10T01:20:08.464Z,79.49
2024-02-10T01:22:36.365Z,79.32
2024-02-10T01:25:05.727Z,79.47
2024-02-10T01:27:33.478Z,79.39
2024-02-10T01:30:04.610Z,79.34
2024-02-10T01:32:33.979Z,79.64
2024-02-10T01:35:05.152Z,79.94
2024-02-10T01:37:33.113Z,79.70
2024-02-10T01:40:02.604Z,79.27
2024-02-10T01:42:40.600Z,79.49
2024-02-10T01:45:13.565Z,79.34
2024-02-10T01:47:45.993Z,79.83
2024-02-10T01:50:15.052Z,79.75
2024-02-10T01:52:44.513Z,79.98
2024-02-10T01:55:12.594Z,80.12
2024-02-10T01:57:40.885Z,80.28
2024-02-10T02:00:15.284Z,80.06
2024-02-10T02:02:43.440Z,79.80
2024-02-10T02:05:11.328Z,80.06
2024-02-10T02:07:40.306Z,80.06
2024-02-10T02:10:10.322Z,80.27
2024-02-10T02:12:49.552Z,80.09
2024-02-10T02:15:19.018Z,80.34
2024-02-10T02:17:50.910Z,80.26
2024-02-10T02:20:19.230Z,80.40
2024-02-10T02:22:53.599Z,80.10
2024-02-10T02:25:22.779Z,80.17
2024-02-10T02:27:50.677Z,80.08
2024-02-10T02:30:19.051Z,79.88
2024-02-10T02:32:49.168Z,80.00
2024-02-10T02:35:17.064Z,79.97
2024-02-10T02:37:44.976Z,80.25
2024-02-10T02:40:16.195Z,80.31
2024-02-10T02:42:44.051Z,80.21
2024-02-10T02:45:12.287Z,80.13
2024-02-10T02:47:40.359Z,80.17
2024-02-10T02:50:16.280Z,80.51
2024-02-10T02:52:45.634Z,80.66
2024-02-10T02:55:13.834Z,80.67
2024-02-10T02:57:41.797Z,80.57
2024-02-10T03:00:10.128Z,80.41
2024-02-10T03:02:43.556Z,81.15
2024-02-10T03:05:12.660Z,81.21
2024-02-10T03:07:45.450Z,80.58
2024-02-10T03:10:14.320Z,81.13
2024-02-10T03:12:43.030Z,81.07
2024-02-10T03:15:11.352Z,81.02
2024-02-10T03:17:39.728Z,81.05
2024-02-10T03:20:08.120Z,80.91
2024-02-10T03:22:37.586Z,80.86
2024-02-10T03:25:06.224Z,81.21
2024-02-10T03:27:34.123Z,81.11
2024-02-10T03:30:02.046Z,81.13
2024-02-10T03:32:34.093Z,80.88
2024-02-10T03:35:02.408Z,80.99
2024-02-10T03:37:30.571Z,81.25
2024-02-10T03:39:58.609Z,81.30
2024-02-10T03:42:26.574Z,81.08
2024-02-10T03:44:56.256Z,81.55
2024-02-10T03:47:27.134Z,81.21
2024-02-10T03:49:55.083Z,81.39
2024-02-10T03:52:26.902Z,81.25
2024-02-10T03:54:54.965Z,81.40
2024-02-10T03:57:22.945Z,81.28
2024-02-10T03:59:51.302Z,81.35
2024-02-10T04:02:20.007Z,81.16
2024-02-10T04:04:48.120Z,81.39
2024-02-10T04:07:17.759Z,81.78
2024-02-10T04:09:48.047Z,81.43
2024-02-10T04:12:15.868Z,82.46
2024-02-10T04:14:43.707Z,82.28
2024-02-10T04:17:12.512Z,82.37
2024-02-10T04:19:40.450Z,82.69
2024-02-10T04:22:10.384Z,82.87
2024-02-10T04:24:38.319Z,82.64
2024-02-10T04:27:07.555Z,82.69
2024-02-10T04:29:37.285Z,82.83
2024-02-10T04:32:05.621Z,83.24
2024-02-10T04:34:33.390Z,83.07
2024-02-10T04:37:01.180Z,83.13
2024-02-10T04:39:28.949Z,83.20
2024-02-10T04:41:56.652Z,83.41
2024-02-10T04:44:24.543Z,83.13
2024-02-10T04:46:53.069Z,83.55
2024-02-10T04:49:21.201Z,83.34
2024-02-10T04:51:49.072Z,83.47
2024-02-10T04:54:16.710Z,83.38
2024-02-10T04:56:44.594Z,83.61
2024-02-10T04:59:19.680Z,83.69
2024-02-10T05:01:47.302Z,83.75
2024-02-10T05:04:15.774Z,83.65
2024-02-10T05:06:44.036Z,83.62
2024-02-10T05:09:15.184Z,83.05
2024-02-10T05:11:43.047Z,83.51
2024-02-10T05:14:12.068Z,83.78
2024-02-10T05:16:40.171Z,83.60
2024-02-10T05:19:08.092Z,83.60
2024-02-10T05:21:38.669Z,83.62
2024-02-10T05:24:14.075Z,83.62
2024-02-10T05:26:43.952Z,83.45
2024-02-10T05:29:12.681Z,83.59
2024-02-10T05:31:41.474Z,83.54
2024-02-10T05:34:17.061Z,83.53
2024-02-10T05:36:44.937Z,83.49
2024-02-10T05:39:17.894Z,83.43
2024-02-10T05:41:49.559Z,83.42
2024-02-10T05:44:17.428Z,83.33
2024-02-10T05:46:46.034Z,83.04
2024-02-10T05:49:13.880Z,83.21
2024-02-10T05:51:41.566Z,83.23
2024-02-10T05:54:09.315Z,83.16
2024-02-10T05:56:37.048Z,82.81
2024-02-10T05:59:07.978Z,82.82
2024-02-10T06:01:37.392Z,83.05
2024-02-10T06:04:11.377Z,82.95
2024-02-10T06:06:42.130Z,83.45
2024-02-10T06:09:10.090Z,83.51
2024-02-10T06:11:37.750Z,83.43
2024-02-10T06:14:08.950Z,83.10
2024-02-10T06:16:41.966Z,83.66
2024-02-10T06:19:09.930Z,83.66
2024-02-10T06:21:37.701Z,83.75
2024-02-10T06:24:05.640Z,83.79
2024-02-10T06:26:38.613Z,83.74
2024-02-10T06:29:09.328Z,83.69
2024-02-10T06:31:37.162Z,83.76
2024-02-10T06:34:05.620Z,83.91
2024-02-10T06:36:33.444Z,83.79
2024-02-10T06:39:01.796Z,83.79
2024-02-10T06:41:29.633Z,83.80
2024-02-10T06:43:57.474Z,83.66
2024-02-10T06:46:25.275Z,84.33
2024-02-10T06:48:53.022Z,84.22
2024-02-10T06:51:23.099Z,83.94
2024-02-10T06:53:52.255Z,84.08
2024-02-10T06:56:22.198Z,83.93
2024-02-10T06:58:50.445Z,83.99
2024-02-10T07:01:18.757Z,84.10
2024-02-10T07:03:47.535Z,83.72
2024-02-10T07:06:19.112Z,83.53
2024-02-10T07:08:47.063Z,83.67
2024-02-10T07:11:14.740Z,83.68
2024-02-10T07:13:42.672Z,83.53
2024-02-10T07:16:10.556Z,83.78
2024-02-10T07:18:43.010Z,83.26
2024-02-10T07:21:10.994Z,83.45
2024-02-10T07:23:41.110Z,83.48
2024-02-10T07:26:09.167Z,83.44
2024-02-10T07:28:36.864Z,83.19
2024-02-10T07:31:04.777Z,83.21
2024-02-10T07:33:32.734Z,82.68
2024-02-10T07:36:01.527Z,82.81
2024-02-10T07:38:29.295Z,82.89
2024-02-10T07:40:57.236Z,82.45
2024-02-10T07:43:25.289Z,82.59
2024-02-10T07:45:53.875Z,82.76
2024-02-10T07:48:22.481Z,82.42
2024-02-10T07:50:50.805Z,81.85
2024-02-10T07:53:18.553Z,82.16
2024-02-10T07:55:48.437Z,81.92
2024-02-10T07:58:17.309Z,81.95
2024-02-10T08:00:45.911Z,81.74
2024-02-10T08:03:13.904Z,81.72
2024-02-10T08:05:43.648Z,81.64
2024-02-10T08:08:12.132Z,81.76
2024-02-10T08:10:40.434Z,81.34
2024-02-10T08:13:10.193Z,81.53
2024-02-10T08:15:38.276Z,80.22
2024-02-10T08:18:10.698Z,79.83
2024-02-10T08:20:41.756Z,79.85
2024-02-10T08:23:14.212Z,79.78
2024-02-10T08:25:45.162Z,79.58
2024-02-10T08:28:12.934Z,79.56
2024-02-10T08:30:40.859Z,79.39
2024-02-10T08:33:08.762Z,79.09
2024-02-10T08:35:37.766Z,79.09
2024-02-10T08:38:05.746Z,79.03
2024-02-10T08:40:33.686Z,78.98
2024-02-10T08:43:01.547Z,78.87
2024-02-10T08:45:29.603Z,78.55
2024-02-10T08:47:57.443Z,78.81
2024-02-10T08:50:25.155Z,78.60
2024-02-10T08:52:53.144Z,78.25
2024-02-10T08:55:23.954Z,78.15
2024-02-10T08:57:51.936Z,76.54
2024-02-10T09:00:20.999Z,76.53
2024-02-10T09:02:52.288Z,75.89
2024-02-10T09:05:20.521Z,75.10
2024-02-10T09:07:48.326Z,74.01
2024-02-10T09:10:16.212Z,73.67
2024-02-10T09:12:45.923Z,72.25
2024-02-10T09:15:13.641Z,72.14
2024-02-10T09:17:41.518Z,72.08
2024-02-10T09:20:10.079Z,72.30
2024-02-10T09:22:38.019Z,72.26
2024-02-10T09:25:06.514Z,72.57
2024-02-10T09:27:35.076Z,72.87
2024-02-10T09:30:04.499Z,73.29
2024-02-10T09:32:32.352Z,72.91
2024-02-10T09:35:05.520Z,71.72
2024-02-10T09:37:33.330Z,70.77
2024-02-10T09:40:01.279Z,70.14
2024-02-10T09:42:31.750Z,69.98
2024-02-10T09:44:59.735Z,69.98
2024-02-10T09:47:27.518Z,70.23
2024-02-10T09:50:05.329Z,69.33
2024-02-10T09:52:36.600Z,69.12
2024-02-10T09:55:08.477Z,68.96
2024-02-10T09:57:38.639Z,69.56
2024-02-10T10:00:06.965Z,69.71
2024-02-10T10:02:35.413Z,69.49
2024-02-10T10:05:03.623Z,69.48
2024-02-10T10:07:32.835Z,69.59
2024-02-10T10:10:00.569Z,69.82
2024-02-10T10:12:28.343Z,69.97
2024-02-10T10:14:56.048Z,70.13
2024-02-10T10:17:34.582Z,70.22
2024-02-10T10:20:11.836Z,70.21
2024-02-10T10:22:40.219Z,70.36
2024-02-10T10:25:10.304Z,70.49
2024-02-10T10:27:39.956Z,69.88
2024-02-10T10:30:13.308Z,70.22
2024-02-10T10:32:43.715Z,70.24
2024-02-10T10:35:12.834Z,70.16
2024-02-10T10:37:40.742Z,69.88
2024-02-10T10:40:11.859Z,70.13
2024-02-10T10:42:42.561Z,70.17
2024-02-10T10:45:10.930Z,70.47
2024-02-10T10:47:42.404Z,70.43
2024-02-10T10:50:10.995Z,70.19
2024-02-10T10:52:43.502Z,70.11
2024-02-10T10:55:17.027Z,70.28
2024-02-10T10:57:51.357Z,70.72
2024-02-10T11:00:22.375Z,70.72
2024-02-10T11:02:54.344Z,71.01
2024-02-10T11:05:25.121Z,71.39
2024-02-10T11:08:03.229Z,71.85
2024-02-10T11:10:39.305Z,71.77
2024-02-10T11:13:09.009Z,71.81
2024-02-10T11:15:42.146Z,72.07
2024-02-10T11:18:21.237Z,71.82
2024-02-10T11:20:49.130Z,72.19
2024-02-10T11:23:22.288Z,72.17
2024-02-10T11:25:53.966Z,72.33
2024-02-10T11:28:23.301Z,72.47
2024-02-10T11:30:51.688Z,72.46
2024-02-10T11:33:24.650Z,72.34
2024-02-10T11:35:56.403Z,72.52
2024-02-10T11:38:27.456Z,72.76
2024-02-10T11:40:55.437Z,72.69
2024-02-10T11:43:23.752Z,72.75
2024-02-10T11:45:51.479Z,72.78
2024-02-10T11:48:19.344Z,72.63
2024-02-10T11:53:18.840Z,73.09
2024-02-10T11:55:49.384Z,73.34
2024-02-10T11:58:19.478Z,73.34
2024-02-10T12:00:47.562Z,73.84
2024-02-10T12:03:22.210Z,73.83
2024-02-10T12:05:50.394Z,73.73
2024-02-10T12:08:18.610Z,73.83
2024-02-10T12:10:46.459Z,74.02
2024-02-10T12:13:21.143Z,73.91
2024-02-10T12:15:49.032Z,73.69
2024-02-10T12:18:18.656Z,74.12
2024-02-10T12:20:52.513Z,73.64
2024-02-10T12:23:20.397Z,73.79
2024-02-10T12:25:48.173Z,73.91
2024-02-10T12:28:16.018Z,74.30
2024-02-10T12:30:43.726Z,74.10
2024-02-10T12:33:12.230Z,74.19
2024-02-10T12:35:41.274Z,74.12
2024-02-10T12:38:09.234Z,74.20
2024-02-10T12:40:37.926Z,74.00
2024-02-10T12:43:05.891Z,73.98
2024-02-10T12:45:39.066Z,74.29
2024-02-10T12:48:10.022Z,74.17
2024-02-10T12:50:37.949Z,74.12
2024-02-10T12:53:05.792Z,74.04
2024-02-10T12:55:33.580Z,74.10
2024-02-10T12:58:02.295Z,74.70
2024-02-10T13:00:30.221Z,74.39
2024-02-10T13:02:58.334Z,74.69
2024-02-10T13:05:29.149Z,74.37
2024-02-10T13:07:57.175Z,74.34
2024-02-10T13:10:29.893Z,74.44
2024-02-10T13:12:59.791Z,74.56
2024-02-10T13:15:27.816Z,74.53
2024-02-10T13:17:58.916Z,74.49
2024-02-10T13:20:28.434Z,74.48
2024-02-10T13:22:59.800Z,74.50
2024-02-10T13:25:29.113Z,74.52
2024-02-10T13:27:57.317Z,74.47
2024-02-10T13:30:25.531Z,74.69
2024-02-10T13:32:59.525Z,74.81
2024-02-10T13:35:29.541Z,75.22
2024-02-10T13:38:16.204Z,75.30
2024-02-10T13:41:02.543Z,75.27
2024-02-10T13:43:49.525Z,75.44
2024-02-10T13:46:35.892Z,75.75
2024-02-10T13:49:22.227Z,75.85
2024-02-10T13:52:08.952Z,75.56
2024-02-10T13:54:57.036Z,75.54
2024-02-10T13:57:44.329Z,75.86
2024-02-10T14:00:31.729Z,76.01
2024-02-10T14:03:03.176Z,76.11
2024-02-10T14:05:51.801Z,76.22
2024-02-10T14:08:39.107Z,76.51
2024-02-10T14:11:21.783Z,76.35
2024-02-10T14:13:55.067Z,76.63
2024-02-10T14:16:35.225Z,76.63
2024-02-10T14:19:14.086Z,76.51
2024-02-10T14:21:44.573Z,76.76
2024-02-10T14:24:16.917Z,76.66
2024-02-10T14:27:02.787Z,76.60
2024-02-10T14:29:35.171Z,76.69
2024-02-10T14:32:11.336Z,76.87
2024-02-10T14:35:00.657Z,76.83
2024-02-10T14:37:32.293Z,76.88
2024-02-10T14:40:01.206Z,77.17
2024-02-10T14:42:29.710Z,76.94
2024-02-10T14:44:57.536Z,77.05
2024-02-10T14:47:26.104Z,76.87
2024-02-10T14:49:54.413Z,76.86
2024-02-10T14:52:23.848Z,76.56
2024-02-10T14:54:52.096Z,76.59
2024-02-10T14:57:22.940Z,76.41
2024-02-10T14:59:52.413Z,76.32
2024-02-10T15:02:23.785Z,76.10
2024-02-10T15:04:52.431Z,76.39
2024-02-10T15:07:23.433Z,76.24
2024-02-10T15:09:52.546Z,76.15
2024-02-10T15:12:20.345Z,76.40
2024-02-10T15:14:48.244Z,76.53
2024-02-10T15:17:17.998Z,76.30
2024-02-10T15:19:46.636Z,76.58
2024-02-10T15:22:16.591Z,76.31
2024-02-10T15:24:44.832Z,76.65
2024-02-10T15:27:16.855Z,76.72
2024-02-10T15:29:44.719Z,76.90
2024-02-10T15:32:12.798Z,76.78
2024-02-10T15:34:48.473Z,76.74
2024-02-10T15:37:26.075Z,76.74
2024-02-10T15:39:53.934Z,76.71
2024-02-10T15:42:21.915Z,76.47
2024-02-10T15:44:51.701Z,76.86
2024-02-10T15:47:19.766Z,76.59
2024-02-10T15:49:50.941Z,77.04
2024-02-10T15:52:20.723Z,77.04
2024-02-10T15:54:48.717Z,76.97
2024-02-10T15:57:16.549Z,76.80
2024-02-10T15:59:44.369Z,77.14
2024-02-10T16:02:12.697Z,77.04
2024-02-10T16:04:43.617Z,77.02
2024-02-10T16:07:12.140Z,77.45
2024-02-10T16:09:39.958Z,77.42
2024-02-10T16:12:10.133Z,77.81
2024-02-10T16:14:38.732Z,77.70
2024-02-10T16:17:07.096Z,77.69
2024-02-10T16:19:41.092Z,78.20
2024-02-10T16:22:09.424Z,78.00
2024-02-10T16:24:41.297Z,77.89
2024-02-10T16:27:09.121Z,77.58
2024-02-10T16:29:36.962Z,77.84
2024-02-10T16:32:05.341Z,77.80
2024-02-10T16:34:39.535Z,77.94
2024-02-10T16:37:11.765Z,78.00
2024-02-10T16:39:39.688Z,77.74
2024-02-10T16:42:07.453Z,78.39
2024-02-10T16:44:35.368Z,78.17
2024-02-10T16:47:05.781Z,78.15
2024-02-10T16:49:34.400Z,78.56
2024-02-10T16:52:05.040Z,78.28
2024-02-10T16:54:33.365Z,77.99
2024-02-10T16:57:01.767Z,78.39
2024-02-10T16:59:29.928Z,78.42
2024-02-10T17:01:57.791Z,78.27
2024-02-10T17:04:25.700Z,78.18
2024-02-10T17:06:55.875Z,78.52
2024-02-10T17:09:24.089Z,78.54
2024-02-10T17:11:51.843Z,78.53
2024-02-10T17:14:19.620Z,78.58
2024-02-10T17:16:47.415Z,78.32
2024-02-10T17:19:20.013Z,78.31
2024-02-10T17:21:52.408Z,78.57
2024-02-10T17:24:21.581Z,78.49
2024-02-10T17:26:49.506Z,78.27
2024-02-10T17:29:17.852Z,78.30
2024-02-10T17:31:47.648Z,78.43
2024-02-10T17:34:15.782Z,78.64
2024-02-10T17:36:43.641Z,78.49
2024-02-10T17:39:11.817Z,78.57
2024-02-10T17:41:44.494Z,78.08
2024-02-10T17:44:15.135Z,78.42
2024-02-10T17:46:52.334Z,78.38
2024-02-10T17:49:21.576Z,78.25
2024-02-10T17:51:49.586Z,78.56
2024-02-10T17:54:20.665Z,78.40
2024-02-10T17:56:49.319Z,78.44
2024-02-10T17:59:19.735Z,78.32
2024-02-10T18:01:48.051Z,78.56
2024-02-10T18:04:16.453Z,78.38
2024-02-10T18:06:45.408Z,78.42
2024-02-10T18:09:14.515Z,78.18
2024-02-10T18:11:46.027Z,78.19
2024-02-10T18:14:16.671Z,78.16
2024-02-10T18:16:46.294Z,78.12
2024-02-10T18:19:14.297Z,78.15
2024-02-10T18:21:42.387Z,77.93
2024-02-10T18:24:10.420Z,77.82
2024-02-10T18:26:40.827Z,77.71
2024-02-10T18:29:08.658Z,77.04
2024-02-10T18:31:36.690Z,77.49
2024-02-10T18:34:04.555Z,77.36
2024-02-10T18:36:32.397Z,76.75
2024-02-10T18:39:00.602Z,76.97
2024-02-10T18:41:28.533Z,76.60
2024-02-10T18:44:03.251Z,76.40
2024-02-10T18:46:32.513Z,76.19
2024-02-10T18:49:01.152Z,76.15
2024-02-10T18:51:29.582Z,76.27
2024-02-10T18:53:58.209Z,76.11
2024-02-10T18:56:26.443Z,75.98
2024-02-10T18:58:56.089Z,75.72
2024-02-10T19:01:27.294Z,75.40
2024-02-10T19:03:55.871Z,75.47
2024-02-10T19:06:24.227Z,75.33
2024-02-10T19:08:53.553Z,74.83
2024-02-10T19:11:21.512Z,75.03
2024-02-10T19:13:49.670Z,74.80
2024-02-10T19:16:17.517Z,74.83
2024-02-10T19:18:47.495Z,74.76
2024-02-10T19:21:16.338Z,74.30
2024-02-10T19:23:48.124Z,74.32
2024-02-10T19:26:18.016Z,74.08
2024-02-10T19:28:47.162Z,73.87
2024-02-10T19:31:15.856Z,73.37
2024-02-10T19:33:44.014Z,73.62
2024-02-10T19:36:12.313Z,73.06
2024-02-10T19:38:40.876Z,73.05
2024-02-10T19:41:09.460Z,73.04
2024-02-10T19:43:37.438Z,73.04
2024-02-10T19:46:06.287Z,72.77
2024-02-10T19:48:34.457Z,72.89
2024-02-10T19:51:04.379Z,72.93
2024-02-10T19:53:32.357Z,72.35
2024-02-10T19:56:00.146Z,72.45
2024-02-10T19:58:29.653Z,72.53
2024-02-10T20:01:01.144Z,72.66
2024-02-10T20:03:29.174Z,72.07
2024-02-10T20:05:58.388Z,72.20
2024-02-10T20:08:26.547Z,72.37
2024-02-10T20:10:55.510Z,72.07
2024-02-10T20:13:23.573Z,72.01
2024-02-10T20:15:51.570Z,71.86
2024-02-10T20:18:20.510Z,71.75
2024-02-10T20:20:48.432Z,71.95
2024-02-10T20:23:18.043Z,71.88
2024-02-10T20:25:45.970Z,71.68
2024-02-10T20:28:14.018Z,71.73
2024-02-10T20:30:44.425Z,71.73
2024-02-10T20:33:13.059Z,71.58
2024-02-10T20:35:43.939Z,71.54
2024-02-10T20:38:12.023Z,71.68
2024-02-10T20:40:39.857Z,71.69
2024-02-10T20:43:07.849Z,72.01
2024-02-10T20:45:38.700Z,71.77
2024-02-10T20:48:07.999Z,71.44
2024-02-10T20:50:36.260Z,71.52
2024-02-10T20:53:04.360Z,71.82
2024-02-10T20:55:32.203Z,71.95
2024-02-10T20:57:59.931Z,71.96
2024-02-10T21:00:28.808Z,72.14
2024-02-10T21:02:57.735Z,72.41
2024-02-10T21:05:26.011Z,72.58
2024-02-10T21:07:53.767Z,72.93
2024-02-10T21:10:21.918Z,72.89
2024-02-10T21:12:50.829Z,73.10
2024-02-10T21:15:18.894Z,72.89
2024-02-10T21:17:47.762Z,72.79
2024-02-10T21:20:16.904Z,72.66
2024-02-10T21:22:48.633Z,72.43
2024-02-10T21:25:16.973Z,72.54
2024-02-10T21:27:44.788Z,72.63
2024-02-10T21:30:14.477Z,72.67
2024-02-10T21:32:44.257Z,72.24
2024-02-10T21:35:12.585Z,72.74
2024-02-10T21:37:41.493Z,72.72
2024-02-10T21:40:09.763Z,72.69
2024-02-10T21:42:37.782Z,72.65
2024-02-10T21:45:06.435Z,72.98
2024-02-10T21:47:37.567Z,73.03
2024-02-10T21:50:06.212Z,72.73
2024-02-10T21:52:34.220Z,72.83
2024-02-10T21:55:02.013Z,73.17
2024-02-10T21:57:37.020Z,73.20
2024-02-10T22:00:12.081Z,72.92
2024-02-10T22:02:40.270Z,73.18
2024-02-10T22:05:08.654Z,73.64
2024-02-10T22:07:40.219Z,73.47
2024-02-10T22:10:13.420Z,73.92
2024-02-10T22:12:47.436Z,73.84
2024-02-10T22:15:21.424Z,74.34
2024-02-10T22:17:49.877Z,74.31
2024-02-10T22:20:19.369Z,74.45
2024-02-10T22:22:48.566Z,74.56
2024-02-10T22:25:18.132Z,74.71
2024-02-10T22:27:46.075Z,74.63
2024-02-10T22:30:20.255Z,74.97
2024-02-10T22:32:49.982Z,75.12
2024-02-10T22:35:20.258Z,75.39
2024-02-10T22:37:49.697Z,75.14
2024-02-10T22:40:23.495Z,75.45
2024-02-10T22:42:51.388Z,75.25
2024-02-10T22:45:20.303Z,75.70
2024-02-10T22:47:48.797Z,75.62
2024-02-10T22:50:19.861Z,75.80
2024-02-10T22:52:47.701Z,76.17
2024-02-10T22:55:18.510Z,76.20
2024-02-10T22:57:47.091Z,76.27
2024-02-10T23:00:30.102Z,76.45
2024-02-10T23:02:58.034Z,76.64
2024-02-10T23:05:26.141Z,76.68
2024-02-10T23:07:55.023Z,77.29
2024-02-10T23:10:22.811Z,76.48
2024-02-10T23:12:51.126Z,76.87
2024-02-10T23:15:23.596Z,77.22
2024-02-10T23:17:52.260Z,77.32
2024-02-10T23:20:20.465Z,77.12
2024-02-10T23:22:48.153Z,77.32
2024-02-10T23:25:16.326Z,77.21
2024-02-10T23:27:44.823Z,76.99
2024-02-10T23:30:12.787Z,77.32
2024-02-10T23:32:40.822Z,77.16
2024-02-10T23:35:10.507Z,77.53
2024-02-10T23:37:38.522Z,77.40
2024-02-10T23:40:15.089Z,77.10
2024-02-10T23:42:43.820Z,77.27
2024-02-10T23:45:11.698Z,77.34
2024-02-10T23:47:43.911Z,77.79
2024-02-10T23:50:15.546Z,77.68
2024-02-10T23:52:43.774Z,77.60
2024-02-10T23:55:14.341Z,77.56
2024-02-10T23:57:42.372Z,77.61
